sensor_id;sensor_type;location;lat;lon;timestamp;temperature;humidity
18506;DHT22;9382;53.242;10.438;2022-09-09T00:00:52;14.20;99.90
18506;DHT22;9382;53.242;10.438;2022-09-09T00:03:25;14.20;99.90
18506;DHT22;9382;53.242;10.438;2022-09-09T00:05:59;14.20;99.90
18506;DHT22;9382;53.242;10.438;2022-09-09T00:08:36;14.20;99.90
18506;DHT22;9382;53.242;10.438;2022-09-09T00:11:05;14.20;99.90
18506;DHT22;9382;53.242;10.438;2022-09-09T00:13:38;14.20;99.90
18506;DHT22;9382;53.242;10.438;2022-09-09T00:16:12;14.10;99.90
18506;DHT22;9382;53.242;10.438;2022-09-09T00:18:52;14.10;99.90
18506;DHT22;9382;53.242;10.438;2022-09-09T00:21:27;14.10;99.90
18506;DHT22;9382;53.242;10.438;2022-09-09T00:23:57;14.10;99.90
18506;DHT22;9382;53.242;10.438;2022-09-09T00:26:34;14.10;99.90
18506;DHT22;9382;53.242;10.438;2022-09-09T00:29:09;14.10;99.90
18506;DHT22;9382;53.242;10.438;2022-09-09T00:31:39;14.10;99.90
18506;DHT22;9382;53.242;10.438;2022-09-09T00:34:12;14.00;99.90
18506;DHT22;9382;53.242;10.438;2022-09-09T00:36:40;14.00;99.90
18506;DHT22;9382;53.242;10.438;2022-09-09T00:39:23;14.00;99.90
18506;DHT22;9382;53.242;10.438;2022-09-09T00:42:10;13.90;99.90
18506;DHT22;9382;53.242;10.438;2022-09-09T00:44:51;13.90;99.90
18506;DHT22;9382;53.242;10.438;2022-09-09T00:47:36;13.90;99.90
18506;DHT22;9382;53.242;10.438;2022-09-09T00:53:02;13.80;99.90
18506;DHT22;9382;53.242;10.438;2022-09-09T00:55:39;13.80;99.90
18506;DHT22;9382;53.242;10.438;2022-09-09T00:58:09;13.80;99.90
18506;DHT22;9382;53.242;10.438;2022-09-09T01:00:42;13.80;99.90
18506;DHT22;9382;53.242;10.438;2022-09-09T01:03:22;13.80;99.90
18506;DHT22;9382;53.242;10.438;2022-09-09T01:06:00;13.80;99.90
18506;DHT22;9382;53.242;10.438;2022-09-09T01:08:42;13.70;99.90
18506;DHT22;9382;53.242;10.438;2022-09-09T01:11:16;13.70;99.90
18506;DHT22;9382;53.242;10.438;2022-09-09T01:13:49;13.70;99.90
18506;DHT22;9382;53.242;10.438;2022-09-09T01:16:20;13.60;99.90
18506;DHT22;9382;53.242;10.438;2022-09-09T01:18:51;13.60;99.90
18506;DHT22;9382;53.242;10.438;2022-09-09T01:21:25;13.60;99.90
18506;DHT22;9382;53.242;10.438;2022-09-09T01:24:09;13.60;99.90
18506;DHT22;9382;53.242;10.438;2022-09-09T01:26:43;13.60;99.90
18506;DHT22;9382;53.242;10.438;2022-09-09T01:29:12;13.60;99.90
18506;DHT22;9382;53.242;10.438;2022-09-09T01:31:41;13.60;99.90
18506;DHT22;9382;53.242;10.438;2022-09-09T01:34:10;13.60;99.90
18506;DHT22;9382;53.242;10.438;2022-09-09T01:36:40;13.50;99.90
18506;DHT22;9382;53.242;10.438;2022-09-09T01:39:09;13.50;99.90
18506;DHT22;9382;53.242;10.438;2022-09-09T01:41:36;13.50;99.90
18506;DHT22;9382;53.242;10.438;2022-09-09T01:44:05;13.40;99.90
18506;DHT22;9382;53.242;10.438;2022-09-09T01:46:32;13.40;99.90
18506;DHT22;9382;53.242;10.438;2022-09-09T01:49:01;13.40;99.90
18506;DHT22;9382;53.242;10.438;2022-09-09T01:51:28;13.40;99.90
18506;DHT22;9382;53.242;10.438;2022-09-09T01:53:55;13.40;99.90
18506;DHT22;9382;53.242;10.438;2022-09-09T01:56:32;13.40;99.90
18506;DHT22;9382;53.242;10.438;2022-09-09T01:59:10;13.30;99.90
18506;DHT22;9382;53.242;10.438;2022-09-09T02:01:46;13.30;99.90
18506;DHT22;9382;53.242;10.438;2022-09-09T02:04:23;13.30;99.90
18506;DHT22;9382;53.242;10.438;2022-09-09T02:06:54;13.30;99.90
18506;DHT22;9382;53.242;10.438;2022-09-09T02:09:23;13.20;99.90
18506;DHT22;9382;53.242;10.438;2022-09-09T02:11:55;13.20;99.90
18506;DHT22;9382;53.242;10.438;2022-09-09T02:14:28;13.20;99.90
18506;DHT22;9382;53.242;10.438;2022-09-09T02:17:01;13.20;99.90
18506;DHT22;9382;53.242;10.438;2022-09-09T02:19:31;13.20;99.90
18506;DHT22;9382;53.242;10.438;2022-09-09T02:22:00;13.20;99.90
18506;DHT22;9382;53.242;10.438;2022-09-09T02:24:28;13.20;99.90
18506;DHT22;9382;53.242;10.438;2022-09-09T02:26:58;13.20;99.90
18506;DHT22;9382;53.242;10.438;2022-09-09T02:29:30;13.20;99.90
18506;DHT22;9382;53.242;10.438;2022-09-09T02:32:00;13.10;99.90
18506;DHT22;9382;53.242;10.438;2022-09-09T02:34:30;13.00;99.90
18506;DHT22;9382;53.242;10.438;2022-09-09T02:36:59;13.00;99.90
18506;DHT22;9382;53.242;10.438;2022-09-09T02:39:27;12.90;99.90
18506;DHT22;9382;53.242;10.438;2022-09-09T02:41:54;12.90;99.90
18506;DHT22;9382;53.242;10.438;2022-09-09T02:44:21;12.90;99.90
18506;DHT22;9382;53.242;10.438;2022-09-09T02:49:59;12.80;99.90
18506;DHT22;9382;53.242;10.438;2022-09-09T02:52:33;12.80;99.90
18506;DHT22;9382;53.242;10.438;2022-09-09T02:55:08;12.70;99.90
18506;DHT22;9382;53.242;10.438;2022-09-09T02:57:38;12.70;99.90
18506;DHT22;9382;53.242;10.438;2022-09-09T03:00:07;12.70;99.90
18506;DHT22;9382;53.242;10.438;2022-09-09T03:02:35;12.70;99.90
18506;DHT22;9382;53.242;10.438;2022-09-09T03:05:03;12.70;99.90
18506;DHT22;9382;53.242;10.438;2022-09-09T03:07:30;12.70;99.90
18506;DHT22;9382;53.242;10.438;2022-09-09T03:09:57;12.70;99.90
18506;DHT22;9382;53.242;10.438;2022-09-09T03:12:24;12.70;99.90
18506;DHT22;9382;53.242;10.438;2022-09-09T03:14:51;12.70;99.90
18506;DHT22;9382;53.242;10.438;2022-09-09T03:17:17;12.60;99.90
18506;DHT22;9382;53.242;10.438;2022-09-09T03:19:46;12.60;99.90
18506;DHT22;9382;53.242;10.438;2022-09-09T03:22:15;12.60;99.90
18506;DHT22;9382;53.242;10.438;2022-09-09T03:24:41;12.60;99.90
18506;DHT22;9382;53.242;10.438;2022-09-09T03:27:08;12.70;99.90
18506;DHT22;9382;53.242;10.438;2022-09-09T03:29:35;12.70;99.90
18506;DHT22;9382;53.242;10.438;2022-09-09T03:32:02;12.70;99.90
18506;DHT22;9382;53.242;10.438;2022-09-09T03:34:29;12.70;99.90
18506;DHT22;9382;53.242;10.438;2022-09-09T03:36:57;12.70;99.90
18506;DHT22;9382;53.242;10.438;2022-09-09T03:39:24;12.60;99.90
18506;DHT22;9382;53.242;10.438;2022-09-09T03:41:51;12.70;99.90
18506;DHT22;9382;53.242;10.438;2022-09-09T03:44:17;12.70;99.90
18506;DHT22;9382;53.242;10.438;2022-09-09T03:46:44;12.70;99.90
18506;DHT22;9382;53.242;10.438;2022-09-09T03:49:11;12.70;99.90
18506;DHT22;9382;53.242;10.438;2022-09-09T03:51:38;12.80;99.90
18506;DHT22;9382;53.242;10.438;2022-09-09T03:54:07;12.80;99.90
18506;DHT22;9382;53.242;10.438;2022-09-09T03:56:36;12.80;99.90
18506;DHT22;9382;53.242;10.438;2022-09-09T03:59:03;12.70;99.90
18506;DHT22;9382;53.242;10.438;2022-09-09T04:01:30;12.70;99.90
18506;DHT22;9382;53.242;10.438;2022-09-09T04:03:57;12.70;99.90
18506;DHT22;9382;53.242;10.438;2022-09-09T04:06:25;12.70;99.90
18506;DHT22;9382;53.242;10.438;2022-09-09T04:08:52;12.70;99.90
18506;DHT22;9382;53.242;10.438;2022-09-09T04:11:20;12.80;99.90
18506;DHT22;9382;53.242;10.438;2022-09-09T04:13:46;12.80;99.90
18506;DHT22;9382;53.242;10.438;2022-09-09T04:16:13;12.80;99.90
18506;DHT22;9382;53.242;10.438;2022-09-09T04:18:40;12.90;99.90
18506;DHT22;9382;53.242;10.438;2022-09-09T04:21:09;12.90;99.90
18506;DHT22;9382;53.242;10.438;2022-09-09T04:23:37;12.90;99.90
18506;DHT22;9382;53.242;10.438;2022-09-09T04:26:05;12.90;99.90
18506;DHT22;9382;53.242;10.438;2022-09-09T04:28:35;13.00;99.90
18506;DHT22;9382;53.242;10.438;2022-09-09T04:31:06;13.00;99.90
18506;DHT22;9382;53.242;10.438;2022-09-09T04:33:34;13.10;99.90
18506;DHT22;9382;53.242;10.438;2022-09-09T04:36:02;13.10;99.90
18506;DHT22;9382;53.242;10.438;2022-09-09T04:38:29;13.10;99.90
18506;DHT22;9382;53.242;10.438;2022-09-09T04:40:56;13.20;99.90
18506;DHT22;9382;53.242;10.438;2022-09-09T04:43:23;13.20;99.90
18506;DHT22;9382;53.242;10.438;2022-09-09T04:45:53;13.20;99.90
18506;DHT22;9382;53.242;10.438;2022-09-09T04:48:20;13.20;99.90
18506;DHT22;9382;53.242;10.438;2022-09-09T04:50:54;13.20;99.90
18506;DHT22;9382;53.242;10.438;2022-09-09T04:53:21;13.20;99.90
18506;DHT22;9382;53.242;10.438;2022-09-09T04:55:48;13.30;99.90
18506;DHT22;9382;53.242;10.438;2022-09-09T04:58:15;13.30;99.90
18506;DHT22;9382;53.242;10.438;2022-09-09T05:00:42;13.30;99.90
18506;DHT22;9382;53.242;10.438;2022-09-09T05:03:10;13.30;99.90
18506;DHT22;9382;53.242;10.438;2022-09-09T05:05:38;13.30;99.90
18506;DHT22;9382;53.242;10.438;2022-09-09T05:08:06;13.30;99.90
18506;DHT22;9382;53.242;10.438;2022-09-09T05:10:34;13.40;99.90
18506;DHT22;9382;53.242;10.438;2022-09-09T05:13:01;13.40;99.90
18506;DHT22;9382;53.242;10.438;2022-09-09T05:15:28;13.40;99.90
18506;DHT22;9382;53.242;10.438;2022-09-09T05:17:57;13.30;99.90
18506;DHT22;9382;53.242;10.438;2022-09-09T05:20:25;13.40;99.90
18506;DHT22;9382;53.242;10.438;2022-09-09T05:22:53;13.30;99.90
18506;DHT22;9382;53.242;10.438;2022-09-09T05:25:20;13.30;99.90
18506;DHT22;9382;53.242;10.438;2022-09-09T05:27:47;13.30;99.90
18506;DHT22;9382;53.242;10.438;2022-09-09T05:30:15;13.30;99.90
18506;DHT22;9382;53.242;10.438;2022-09-09T05:32:42;13.30;99.90
18506;DHT22;9382;53.242;10.438;2022-09-09T05:35:08;13.30;99.90
18506;DHT22;9382;53.242;10.438;2022-09-09T05:37:36;13.40;99.90
18506;DHT22;9382;53.242;10.438;2022-09-09T05:40:04;13.40;99.90
18506;DHT22;9382;53.242;10.438;2022-09-09T05:42:31;13.50;99.90
18506;DHT22;9382;53.242;10.438;2022-09-09T05:44:58;13.50;99.90
18506;DHT22;9382;53.242;10.438;2022-09-09T05:47:24;13.60;99.90
18506;DHT22;9382;53.242;10.438;2022-09-09T05:49:53;13.60;99.90
18506;DHT22;9382;53.242;10.438;2022-09-09T05:52:20;13.60;99.90
18506;DHT22;9382;53.242;10.438;2022-09-09T05:54:48;13.70;99.90
18506;DHT22;9382;53.242;10.438;2022-09-09T05:57:14;13.70;99.90
18506;DHT22;9382;53.242;10.438;2022-09-09T05:59:41;13.70;99.90
18506;DHT22;9382;53.242;10.438;2022-09-09T06:02:08;13.70;99.90
18506;DHT22;9382;53.242;10.438;2022-09-09T06:04:35;13.80;99.90
18506;DHT22;9382;53.242;10.438;2022-09-09T06:07:02;13.70;99.90
18506;DHT22;9382;53.242;10.438;2022-09-09T06:09:29;13.80;99.90
18506;DHT22;9382;53.242;10.438;2022-09-09T06:11:57;13.80;99.90
18506;DHT22;9382;53.242;10.438;2022-09-09T06:14:24;13.80;99.90
18506;DHT22;9382;53.242;10.438;2022-09-09T06:16:52;13.90;99.90
18506;DHT22;9382;53.242;10.438;2022-09-09T06:19:19;13.90;99.90
18506;DHT22;9382;53.242;10.438;2022-09-09T06:21:46;13.90;99.90
18506;DHT22;9382;53.242;10.438;2022-09-09T06:24:13;13.90;99.90
18506;DHT22;9382;53.242;10.438;2022-09-09T06:26:42;13.90;99.90
18506;DHT22;9382;53.242;10.438;2022-09-09T06:29:12;13.90;99.90
18506;DHT22;9382;53.242;10.438;2022-09-09T06:31:38;14.00;99.90
18506;DHT22;9382;53.242;10.438;2022-09-09T06:34:07;14.10;99.90
18506;DHT22;9382;53.242;10.438;2022-09-09T06:36:36;14.10;99.90
18506;DHT22;9382;53.242;10.438;2022-09-09T06:39:03;14.20;99.90
18506;DHT22;9382;53.242;10.438;2022-09-09T06:41:31;14.20;99.90
18506;DHT22;9382;53.242;10.438;2022-09-09T06:43:58;14.30;99.90
18506;DHT22;9382;53.242;10.438;2022-09-09T06:46:28;14.30;99.90
18506;DHT22;9382;53.242;10.438;2022-09-09T06:48:56;14.40;99.90
18506;DHT22;9382;53.242;10.438;2022-09-09T06:51:26;14.40;99.90
18506;DHT22;9382;53.242;10.438;2022-09-09T06:53:55;14.50;99.90
18506;DHT22;9382;53.242;10.438;2022-09-09T06:56:24;14.60;99.90
18506;DHT22;9382;53.242;10.438;2022-09-09T06:58:53;14.70;99.90
18506;DHT22;9382;53.242;10.438;2022-09-09T07:01:22;14.70;99.90
18506;DHT22;9382;53.242;10.438;2022-09-09T07:03:52;14.90;99.90
18506;DHT22;9382;53.242;10.438;2022-09-09T07:06:21;15.10;99.90
18506;DHT22;9382;53.242;10.438;2022-09-09T07:08:49;15.20;99.90
18506;DHT22;9382;53.242;10.438;2022-09-09T07:11:17;15.30;99.90
18506;DHT22;9382;53.242;10.438;2022-09-09T07:13:44;15.30;99.90
18506;DHT22;9382;53.242;10.438;2022-09-09T07:16:13;15.40;99.90
18506;DHT22;9382;53.242;10.438;2022-09-09T07:18:40;15.60;99.90
18506;DHT22;9382;53.242;10.438;2022-09-09T07:21:09;15.70;99.90
18506;DHT22;9382;53.242;10.438;2022-09-09T07:23:37;15.80;99.90
18506;DHT22;9382;53.242;10.438;2022-09-09T07:26:08;15.80;99.90
18506;DHT22;9382;53.242;10.438;2022-09-09T07:28:36;16.00;99.90
18506;DHT22;9382;53.242;10.438;2022-09-09T07:31:02;16.10;99.90
18506;DHT22;9382;53.242;10.438;2022-09-09T07:33:30;16.30;99.90
18506;DHT22;9382;53.242;10.438;2022-09-09T07:36:03;16.50;99.90
18506;DHT22;9382;53.242;10.438;2022-09-09T07:38:31;16.50;99.90
18506;DHT22;9382;53.242;10.438;2022-09-09T07:41:04;16.60;99.90
18506;DHT22;9382;53.242;10.438;2022-09-09T07:43:31;16.70;99.90
18506;DHT22;9382;53.242;10.438;2022-09-09T07:45:59;16.80;99.90
18506;DHT22;9382;53.242;10.438;2022-09-09T07:48:26;17.00;99.90
18506;DHT22;9382;53.242;10.438;2022-09-09T07:51:03;17.10;99.90
18506;DHT22;9382;53.242;10.438;2022-09-09T07:53:32;17.20;99.90
18506;DHT22;9382;53.242;10.438;2022-09-09T07:56:03;17.20;99.90
18506;DHT22;9382;53.242;10.438;2022-09-09T07:58:29;17.30;99.90
18506;DHT22;9382;53.242;10.438;2022-09-09T08:00:56;17.40;99.90
18506;DHT22;9382;53.242;10.438;2022-09-09T08:03:23;17.40;99.90
18506;DHT22;9382;53.242;10.438;2022-09-09T08:05:49;17.50;99.90
18506;DHT22;9382;53.242;10.438;2022-09-09T08:08:17;17.60;99.90
18506;DHT22;9382;53.242;10.438;2022-09-09T08:10:45;17.60;99.90
18506;DHT22;9382;53.242;10.438;2022-09-09T08:13:11;17.50;99.90
18506;DHT22;9382;53.242;10.438;2022-09-09T08:15:39;17.50;99.90
18506;DHT22;9382;53.242;10.438;2022-09-09T08:18:07;17.60;99.90
18506;DHT22;9382;53.242;10.438;2022-09-09T08:20:36;17.60;99.90
18506;DHT22;9382;53.242;10.438;2022-09-09T08:23:03;17.60;99.90
18506;DHT22;9382;53.242;10.438;2022-09-09T08:25:30;17.60;99.90
18506;DHT22;9382;53.242;10.438;2022-09-09T08:27:58;17.60;99.90
18506;DHT22;9382;53.242;10.438;2022-09-09T08:30:25;17.70;99.90
18506;DHT22;9382;53.242;10.438;2022-09-09T08:32:52;17.70;99.90
18506;DHT22;9382;53.242;10.438;2022-09-09T08:35:19;17.70;99.90
18506;DHT22;9382;53.242;10.438;2022-09-09T08:37:46;17.80;99.90
18506;DHT22;9382;53.242;10.438;2022-09-09T08:40:19;17.80;99.90
18506;DHT22;9382;53.242;10.438;2022-09-09T08:42:51;17.90;99.90
18506;DHT22;9382;53.242;10.438;2022-09-09T08:45:29;18.00;99.90
18506;DHT22;9382;53.242;10.438;2022-09-09T08:48:09;18.10;99.90
18506;DHT22;9382;53.242;10.438;2022-09-09T08:50:38;18.40;99.90
18506;DHT22;9382;53.242;10.438;2022-09-09T08:53:11;18.70;99.90
18506;DHT22;9382;53.242;10.438;2022-09-09T08:55:45;19.10;99.90
18506;DHT22;9382;53.242;10.438;2022-09-09T08:58:16;19.10;99.90
18506;DHT22;9382;53.242;10.438;2022-09-09T09:00:54;19.10;99.90
18506;DHT22;9382;53.242;10.438;2022-09-09T09:03:30;18.90;99.90
18506;DHT22;9382;53.242;10.438;2022-09-09T09:06:06;19.10;99.90
18506;DHT22;9382;53.242;10.438;2022-09-09T09:08:39;19.40;99.90
18506;DHT22;9382;53.242;10.438;2022-09-09T09:11:08;19.40;99.90
18506;DHT22;9382;53.242;10.438;2022-09-09T09:13:40;19.60;99.90
18506;DHT22;9382;53.242;10.438;2022-09-09T09:16:19;19.60;99.90
18506;DHT22;9382;53.242;10.438;2022-09-09T09:18:48;19.70;99.90
18506;DHT22;9382;53.242;10.438;2022-09-09T09:21:19;19.80;99.90
18506;DHT22;9382;53.242;10.438;2022-09-09T09:23:53;19.70;99.90
18506;DHT22;9382;53.242;10.438;2022-09-09T09:26:23;19.70;99.90
18506;DHT22;9382;53.242;10.438;2022-09-09T09:28:54;19.70;99.90
18506;DHT22;9382;53.242;10.438;2022-09-09T09:31:23;19.70;99.90
18506;DHT22;9382;53.242;10.438;2022-09-09T09:33:54;19.70;99.90
18506;DHT22;9382;53.242;10.438;2022-09-09T09:36:24;19.70;99.90
18506;DHT22;9382;53.242;10.438;2022-09-09T09:38:54;19.70;99.90
18506;DHT22;9382;53.242;10.438;2022-09-09T09:41:35;19.60;99.90
18506;DHT22;9382;53.242;10.438;2022-09-09T09:44:03;19.50;99.90
18506;DHT22;9382;53.242;10.438;2022-09-09T09:46:31;19.50;99.90
18506;DHT22;9382;53.242;10.438;2022-09-09T09:49:00;19.30;99.90
18506;DHT22;9382;53.242;10.438;2022-09-09T09:51:29;19.40;99.90
18506;DHT22;9382;53.242;10.438;2022-09-09T09:54:09;19.50;99.90
18506;DHT22;9382;53.242;10.438;2022-09-09T09:56:41;19.80;99.90
18506;DHT22;9382;53.242;10.438;2022-09-09T09:59:20;20.20;99.90
18506;DHT22;9382;53.242;10.438;2022-09-09T10:01:48;20.40;99.90
18506;DHT22;9382;53.242;10.438;2022-09-09T10:04:17;20.50;99.90
18506;DHT22;9382;53.242;10.438;2022-09-09T10:06:46;20.50;99.90
18506;DHT22;9382;53.242;10.438;2022-09-09T10:09:23;20.70;99.90
18506;DHT22;9382;53.242;10.438;2022-09-09T10:11:57;20.90;99.90
18506;DHT22;9382;53.242;10.438;2022-09-09T10:14:34;20.90;99.90
18506;DHT22;9382;53.242;10.438;2022-09-09T10:17:14;20.90;99.90
18506;DHT22;9382;53.242;10.438;2022-09-09T10:19:54;20.90;99.90
18506;DHT22;9382;53.242;10.438;2022-09-09T10:22:28;21.00;99.90
18506;DHT22;9382;53.242;10.438;2022-09-09T10:25:10;21.10;99.90
18506;DHT22;9382;53.242;10.438;2022-09-09T10:27:51;21.30;99.90
18506;DHT22;9382;53.242;10.438;2022-09-09T10:30:25;21.50;99.90
18506;DHT22;9382;53.242;10.438;2022-09-09T10:33:04;21.70;99.90
18506;DHT22;9382;53.242;10.438;2022-09-09T10:35:35;21.90;99.90
18506;DHT22;9382;53.242;10.438;2022-09-09T10:38:16;22.20;99.90
18506;DHT22;9382;53.242;10.438;2022-09-09T10:40:48;22.60;99.90
18506;DHT22;9382;53.242;10.438;2022-09-09T10:43:27;22.60;99.90
18506;DHT22;9382;53.242;10.438;2022-09-09T10:46:05;22.70;99.90
18506;DHT22;9382;53.242;10.438;2022-09-09T10:48:55;23.00;99.90
18506;DHT22;9382;53.242;10.438;2022-09-09T10:51:31;23.40;99.90
18506;DHT22;9382;53.242;10.438;2022-09-09T10:54:17;23.90;99.90
18506;DHT22;9382;53.242;10.438;2022-09-09T10:56:52;24.30;99.90
18506;DHT22;9382;53.242;10.438;2022-09-09T10:59:25;24.50;99.90
18506;DHT22;9382;53.242;10.438;2022-09-09T11:01:56;24.30;99.90
18506;DHT22;9382;53.242;10.438;2022-09-09T11:04:29;24.20;99.90
18506;DHT22;9382;53.242;10.438;2022-09-09T11:07:07;24.40;99.90
18506;DHT22;9382;53.242;10.438;2022-09-09T11:09:38;24.10;99.90
18506;DHT22;9382;53.242;10.438;2022-09-09T11:12:10;23.70;99.90
18506;DHT22;9382;53.242;10.438;2022-09-09T11:14:42;23.40;99.90
18506;DHT22;9382;53.242;10.438;2022-09-09T11:17:12;23.20;99.90
18506;DHT22;9382;53.242;10.438;2022-09-09T11:19:43;23.20;99.90
18506;DHT22;9382;53.242;10.438;2022-09-09T11:22:16;23.40;99.90
18506;DHT22;9382;53.242;10.438;2022-09-09T11:24:47;23.40;99.90
18506;DHT22;9382;53.242;10.438;2022-09-09T11:27:20;23.30;99.90
18506;DHT22;9382;53.242;10.438;2022-09-09T11:30:11;22.90;99.90
18506;DHT22;9382;53.242;10.438;2022-09-09T11:35:50;22.10;99.90
18506;DHT22;9382;53.242;10.438;2022-09-09T11:38:26;21.80;99.90
18506;DHT22;9382;53.242;10.438;2022-09-09T11:40:58;21.60;99.90
18506;DHT22;9382;53.242;10.438;2022-09-09T11:43:29;21.40;99.90
18506;DHT22;9382;53.242;10.438;2022-09-09T11:45:58;21.10;99.90
18506;DHT22;9382;53.242;10.438;2022-09-09T11:48:31;20.90;99.90
18506;DHT22;9382;53.242;10.438;2022-09-09T11:51:03;20.70;99.90
18506;DHT22;9382;53.242;10.438;2022-09-09T11:53:30;20.30;99.90
18506;DHT22;9382;53.242;10.438;2022-09-09T11:56:09;19.80;99.90
18506;DHT22;9382;53.242;10.438;2022-09-09T11:58:42;19.60;99.90
18506;DHT22;9382;53.242;10.438;2022-09-09T12:01:27;19.20;99.90
18506;DHT22;9382;53.242;10.438;2022-09-09T12:04:02;18.90;99.90
18506;DHT22;9382;53.242;10.438;2022-09-09T12:06:33;18.80;99.90
18506;DHT22;9382;53.242;10.438;2022-09-09T12:09:18;18.70;99.90
18506;DHT22;9382;53.242;10.438;2022-09-09T12:11:46;18.80;99.90
18506;DHT22;9382;53.242;10.438;2022-09-09T12:14:21;18.90;99.90
18506;DHT22;9382;53.242;10.438;2022-09-09T12:16:48;19.10;99.90
18506;DHT22;9382;53.242;10.438;2022-09-09T12:19:18;19.30;99.90
18506;DHT22;9382;53.242;10.438;2022-09-09T12:21:51;19.60;99.90
18506;DHT22;9382;53.242;10.438;2022-09-09T12:24:26;19.90;99.90
18506;DHT22;9382;53.242;10.438;2022-09-09T12:27:00;20.20;99.90
18506;DHT22;9382;53.242;10.438;2022-09-09T12:29:32;20.40;99.90
18506;DHT22;9382;53.242;10.438;2022-09-09T12:32:06;20.50;99.90
18506;DHT22;9382;53.242;10.438;2022-09-09T12:34:39;20.60;99.90
18506;DHT22;9382;53.242;10.438;2022-09-09T12:37:25;20.80;99.90
18506;DHT22;9382;53.242;10.438;2022-09-09T12:39:55;21.10;99.90
18506;DHT22;9382;53.242;10.438;2022-09-09T12:42:24;21.10;99.90
18506;DHT22;9382;53.242;10.438;2022-09-09T12:44:55;21.10;99.90
18506;DHT22;9382;53.242;10.438;2022-09-09T12:47:26;22.00;99.90
18506;DHT22;9382;53.242;10.438;2022-09-09T12:49:55;24.20;99.90
18506;DHT22;9382;53.242;10.438;2022-09-09T12:52:27;26.30;99.90
18506;DHT22;9382;53.242;10.438;2022-09-09T12:54:57;27.70;99.90
18506;DHT22;9382;53.242;10.438;2022-09-09T12:57:26;29.10;99.90
18506;DHT22;9382;53.242;10.438;2022-09-09T13:00:11;30.10;99.90
18506;DHT22;9382;53.242;10.438;2022-09-09T13:02:47;31.00;99.90
18506;DHT22;9382;53.242;10.438;2022-09-09T13:05:19;31.50;99.90
18506;DHT22;9382;53.242;10.438;2022-09-09T13:07:47;32.00;99.90
18506;DHT22;9382;53.242;10.438;2022-09-09T13:10:19;32.30;99.90
18506;DHT22;9382;53.242;10.438;2022-09-09T13:12:48;32.60;99.90
18506;DHT22;9382;53.242;10.438;2022-09-09T13:15:21;32.80;99.90
18506;DHT22;9382;53.242;10.438;2022-09-09T13:17:53;33.00;99.90
18506;DHT22;9382;53.242;10.438;2022-09-09T13:20:21;33.40;99.90
18506;DHT22;9382;53.242;10.438;2022-09-09T13:22:51;32.80;99.90
18506;DHT22;9382;53.242;10.438;2022-09-09T13:25:22;31.50;99.90
18506;DHT22;9382;53.242;10.438;2022-09-09T13:27:57;30.10;99.90
18506;DHT22;9382;53.242;10.438;2022-09-09T13:30:27;28.30;99.90
18506;DHT22;9382;53.242;10.438;2022-09-09T13:33:05;26.80;99.90
18506;DHT22;9382;53.242;10.438;2022-09-09T13:35:33;25.40;99.90
18506;DHT22;9382;53.242;10.438;2022-09-09T13:38:07;24.30;99.90
18506;DHT22;9382;53.242;10.438;2022-09-09T13:40:35;23.50;99.90
18506;DHT22;9382;53.242;10.438;2022-09-09T13:43:02;22.80;99.90
18506;DHT22;9382;53.242;10.438;2022-09-09T13:45:31;22.20;99.90
18506;DHT22;9382;53.242;10.438;2022-09-09T13:48:08;21.80;99.90
18506;DHT22;9382;53.242;10.438;2022-09-09T13:50:36;21.30;99.90
18506;DHT22;9382;53.242;10.438;2022-09-09T13:53:03;21.10;99.90
18506;DHT22;9382;53.242;10.438;2022-09-09T13:55:31;20.80;99.90
18506;DHT22;9382;53.242;10.438;2022-09-09T13:57:59;20.60;99.90
18506;DHT22;9382;53.242;10.438;2022-09-09T14:00:29;20.40;99.90
18506;DHT22;9382;53.242;10.438;2022-09-09T14:02:57;20.30;99.90
18506;DHT22;9382;53.242;10.438;2022-09-09T14:05:25;20.10;99.90
18506;DHT22;9382;53.242;10.438;2022-09-09T14:07:53;20.00;99.90
18506;DHT22;9382;53.242;10.438;2022-09-09T14:10:19;19.80;99.90
18506;DHT22;9382;53.242;10.438;2022-09-09T14:12:49;19.60;99.90
18506;DHT22;9382;53.242;10.438;2022-09-09T14:15:15;19.40;99.90
18506;DHT22;9382;53.242;10.438;2022-09-09T14:17:42;19.20;99.90
18506;DHT22;9382;53.242;10.438;2022-09-09T14:20:10;19.00;99.90
18506;DHT22;9382;53.242;10.438;2022-09-09T14:22:40;18.80;99.90
18506;DHT22;9382;53.242;10.438;2022-09-09T14:25:08;18.70;99.90
18506;DHT22;9382;53.242;10.438;2022-09-09T14:27:34;18.60;99.90
18506;DHT22;9382;53.242;10.438;2022-09-09T14:30:03;18.50;99.90
18506;DHT22;9382;53.242;10.438;2022-09-09T14:32:30;18.30;99.90
18506;DHT22;9382;53.242;10.438;2022-09-09T14:34:56;18.20;99.90
18506;DHT22;9382;53.242;10.438;2022-09-09T14:37:23;18.00;99.90
18506;DHT22;9382;53.242;10.438;2022-09-09T14:39:50;17.90;99.90
18506;DHT22;9382;53.242;10.438;2022-09-09T14:42:17;17.90;99.90
18506;DHT22;9382;53.242;10.438;2022-09-09T14:44:44;17.90;99.90
18506;DHT22;9382;53.242;10.438;2022-09-09T14:47:12;17.90;99.90
18506;DHT22;9382;53.242;10.438;2022-09-09T14:49:39;17.80;99.90
18506;DHT22;9382;53.242;10.438;2022-09-09T14:52:06;17.90;99.90
18506;DHT22;9382;53.242;10.438;2022-09-09T14:54:34;17.90;99.90
18506;DHT22;9382;53.242;10.438;2022-09-09T14:57:01;17.90;99.90
18506;DHT22;9382;53.242;10.438;2022-09-09T14:59:28;18.00;99.90
18506;DHT22;9382;53.242;10.438;2022-09-09T15:01:55;18.00;99.90
18506;DHT22;9382;53.242;10.438;2022-09-09T15:04:23;18.10;99.90
18506;DHT22;9382;53.242;10.438;2022-09-09T15:06:50;18.00;99.90
18506;DHT22;9382;53.242;10.438;2022-09-09T15:09:18;18.10;99.90
18506;DHT22;9382;53.242;10.438;2022-09-09T15:11:45;18.10;99.90
18506;DHT22;9382;53.242;10.438;2022-09-09T15:14:12;18.10;99.90
18506;DHT22;9382;53.242;10.438;2022-09-09T15:16:39;18.20;99.90
18506;DHT22;9382;53.242;10.438;2022-09-09T15:19:06;18.20;99.90
18506;DHT22;9382;53.242;10.438;2022-09-09T15:21:37;18.20;99.90
18506;DHT22;9382;53.242;10.438;2022-09-09T15:24:04;18.20;99.90
18506;DHT22;9382;53.242;10.438;2022-09-09T15:26:32;18.20;99.90
18506;DHT22;9382;53.242;10.438;2022-09-09T15:28:59;18.20;99.90
18506;DHT22;9382;53.242;10.438;2022-09-09T15:31:28;18.20;99.90
18506;DHT22;9382;53.242;10.438;2022-09-09T15:33:58;18.40;99.90
18506;DHT22;9382;53.242;10.438;2022-09-09T15:36:27;18.40;99.90
18506;DHT22;9382;53.242;10.438;2022-09-09T15:38:56;18.30;99.90
18506;DHT22;9382;53.242;10.438;2022-09-09T15:41:23;18.40;99.90
18506;DHT22;9382;53.242;10.438;2022-09-09T15:43:51;18.40;99.90
18506;DHT22;9382;53.242;10.438;2022-09-09T15:46:27;18.50;99.90
18506;DHT22;9382;53.242;10.438;2022-09-09T15:48:55;18.70;99.90
18506;DHT22;9382;53.242;10.438;2022-09-09T15:51:23;18.80;99.90
18506;DHT22;9382;53.242;10.438;2022-09-09T15:53:55;19.00;99.90
18506;DHT22;9382;53.242;10.438;2022-09-09T15:56:22;19.10;99.90
18506;DHT22;9382;53.242;10.438;2022-09-09T15:58:49;19.10;99.90